Observations for BARI PALESE MACCHIE, Italy (LIBD)

LIBD 230520Z 32006KT CAVOK 16/11 Q1015  
LIBD 230450Z VRB02KT CAVOK 14/10 Q1015  
LIBD 230420Z 19003KT CAVOK 12/10 Q1015  
LIBD 230350Z 21002KT CAVOK 12/10 Q1015  
LIBD 230320Z 28002KT CAVOK 13/10 Q1015  
LIBD 230250Z 27004KT CAVOK 14/10 Q1015  
LIBD 230220Z 27005KT CAVOK 14/10 Q1015  
LIBD 230150Z 28006KT CAVOK 15/11 Q1014  
LIBD 230050Z 26004KT CAVOK 15/12 Q1015  
LIBD 222350Z 30007KT CAVOK 16/12 Q1015  
LIBD 222320Z 30006KT CAVOK 15/12 Q1015  
LIBD 222250Z 27005KT CAVOK 15/12 Q1016  
LIBD 222220Z 28002KT CAVOK 15/13 Q1016  
LIBD 222150Z 25003KT 220V280 CAVOK 15/13 Q1015  
LIBD 222120Z 27005KT CAVOK 15/13 Q1015  
LIBD 222050Z 27003KT 240V310 CAVOK 16/14 Q1016  
LIBD 222020Z 31003KT 250V350 CAVOK 16/14 Q1015  
LIBD 221950Z 28003KT CAVOK 17/14 Q1015  
LIBD 221920Z 25003KT CAVOK 17/15 Q1015  
LIBD 221850Z VRB02KT CAVOK 17/15 Q1015  
LIBD 221820Z 28003KT 250V310 CAVOK 18/15 Q1015  
LIBD 221750Z 20003KT 160V240 9999 FEW045 18/14 Q1014
LIBD 221720Z VRB03KT 9999 FEW045 20/10 Q1015
LIBD 221650Z 10004KT 060V160 9999 FEW045 20/10 Q1014
LIBD 221620Z 07007KT 9999 FEW045 20/11 Q1014
LIBD 221550Z 08009KT 9999 FEW045 20/10 Q1014
LIBD 221520Z 07007KT 040V100 CAVOK 21/10 Q1015  
LIBD 221450Z 07007KT CAVOK 21/10 Q1014  
LIBD 221420Z 08006KT 040V150 CAVOK 21/11 Q1014  
LIBD 221350Z VRB04KT CAVOK 22/11 Q1015  
LIBD 221320Z 06005KT 340V100 CAVOK 21/11 Q1015  
LIBD 221250Z 08006KT 040V120 9999 FEW030 20/12 Q1015
LIBD 221220Z 08008KT 050V120 9999 FEW030 20/12 Q1015
LIBD 221150Z 08008KT 040V110 9999 FEW030 20/12 Q1016
LIBD 221120Z 05008KT 360V080 9999 FEW030 21/12 Q1016
LIBD 221050Z 04009KT 9999 FEW030 21/12 Q1015
LIBD 221020Z 36008KT 330V030 9999 FEW030 20/11 Q1016
LIBD 220950Z 01008KT 9999 FEW030 20/11 Q1016
LIBD 220920Z 36008KT 290V030 9999 FEW030 21/12 Q1015
LIBD 220850Z 29007KT 250V320 9999 FEW030 22/09 Q1015
LIBD 220820Z 31009KT 270V340 CAVOK 22/09 Q1015  
LIBD 220750Z 31010KT 280V340 CAVOK 21/09 Q1015  
LIBD 220720Z 30011KT CAVOK 21/09 Q1015  
LIBD 220650Z 30009KT CAVOK 20/09 Q1015  
LIBD 220620Z 30007KT 270V330 CAVOK 19/10 Q1015  
LIBD 220550Z 28007KT CAVOK 18/09 Q1015  
LIBD 220520Z 24003KT 210V290 CAVOK 16/10 Q1015  
LIBD 220450Z 21003KT 180V270 CAVOK 14/10 Q1015